Main page
METAR-TAF:

METAR-TAF

Airports :

Asunción, Paraguay

Silvio Pettirossi International Airport

latitude: 25-16S, longitude: 057-38W, elevation: 101 m

Current weather observation

The report was made 1 hour and 4 minutes ago, at 22:00 UTC
Wind 10 kt from the East/Northeast with gusts up to 20 kt
Temperature 29°C
Humidity 48%
Pressure 1008 hPa
Visibility 10 km or more
no clouds below 1500 m and no cumulonimbus

METAR: SGAS 232200Z 07010G20KT CAVOK 29/17 Q1008

Time: 19:04 (23:04 UTC)

Forecast

The report was made 6 hours and 52 minutes ago, at 16:12 UTC
Forecast valid from 23 at 18 UTC to 24 at 18 UTC
Wind 14 kt from the Northeast with gusts up to 25 kt
Visibility 10 km or more
no clouds below 1500 m and no cumulonimbus
Becoming
from 24 at 01 UTC to 24 at 04 UTC
Wind 15 kt from the Northeast
Visibility 10 km or more
no clouds below 1500 m and no cumulonimbus

TAF: SGAS 231612Z 2318/2418 05014G25KT CAVOK TX33/2319Z TN23/2410Z BECMG 2401/2404 05015KT CAVOK

Weather observations and forecasts of more than 4000 airports (METAR and TAF reports).

The available stations are represented by yellow and red dots on the map.

Hover mouse over dot to see the name of the station.

Then click to see weather observations and forecasts.

To change the map : click on the green buttons with a black cross to zoom in, on the green button with a dash to zoom out, or on the green arrows for adjacent maps.


METAR-TAF: